Time;durP1;ratioP1;P1;durP2;ratioP2;P2;SDS_P1;SDS_P2;PMS_P1;PMS_P2;Temp;Humidity;BMP_temperature;BMP_pressure;BME280_temperature;BME280_humidity;BME280_pressure;Samples;Min_cycle;Max_cycle;Signal;HPM_P1;HPM_P2
2021/03/02 00:02:14;;;;;;;38.60;20.87;;;3.40;99.90;;;-141.85;100.00;63675.41;5014354;28;20202;-62
2021/03/02 00:04:44;;;;;;;35.97;18.77;;;3.40;99.90;;;-141.85;100.00;63675.41;5014396;28;20661;-63
2021/03/02 00:07:13;;;;;;;39.57;19.93;;;3.50;99.90;;;-141.85;100.00;63675.41;5014651;28;20216;-62
2021/03/02 00:09:42;;;;;;;40.23;19.63;;;3.50;99.90;;;-141.85;100.00;63675.41;5014317;28;20216;-63
2021/03/02 00:12:27;;;;;;;39.80;20.13;;;3.50;99.90;;;-141.85;100.00;63675.41;5014644;28;20181;-62
2021/03/02 00:14:54;;;;;;;34.47;19.77;;;3.50;99.90;;;-141.85;100.00;63675.41;5014086;28;20221;-62
2021/03/02 00:17:28;;;;;;;37.70;20.40;;;3.50;99.90;;;-141.85;100.00;63675.41;5013920;28;20833;-62
2021/03/02 00:20:06;;;;;;;40.97;20.97;;;3.50;99.90;;;-141.85;100.00;63675.41;5014434;28;20203;-63
2021/03/02 00:22:44;;;;;;;39.37;20.17;;;3.40;99.90;;;-141.85;100.00;63675.41;5014041;28;20242;-63
2021/03/02 00:25:13;;;;;;;43.83;20.57;;;3.30;99.90;;;-141.85;100.00;63675.41;5014258;28;20215;-63
2021/03/02 00:27:41;;;;;;;43.87;21.60;;;3.30;99.90;;;-141.85;100.00;63675.41;5013917;28;20343;-62
2021/03/02 00:30:10;;;;;;;41.00;21.37;;;3.30;99.90;;;-141.85;100.00;63675.41;5013803;28;20213;-63
2021/03/02 00:32:40;;;;;;;40.63;20.23;;;3.40;99.90;;;-141.85;100.00;63675.41;5013659;28;20547;-63
2021/03/02 00:35:09;;;;;;;39.00;20.93;;;3.40;99.90;;;-141.85;100.00;63675.41;5013644;28;20238;-63
2021/03/02 00:37:36;;;;;;;40.60;21.27;;;3.40;99.90;;;-141.85;100.00;63675.41;5013888;28;20205;-63
2021/03/02 00:40:04;;;;;;;42.93;21.17;;;3.40;99.90;;;-141.85;100.00;63675.41;5013681;28;20680;-62
2021/03/02 00:42:46;;;;;;;42.10;21.60;;;3.40;99.90;;;-141.85;100.00;63675.41;5013806;28;20193;-63
2021/03/02 00:45:14;;;;;;;40.90;21.37;;;3.40;99.90;;;-141.85;100.00;63675.41;5013699;28;20234;-63
2021/03/02 00:47:42;;;;;;;40.43;20.47;;;3.30;99.90;;;-141.85;100.00;63675.41;5013655;28;20228;-62
2021/03/02 00:50:12;;;;;;;42.50;21.17;;;3.30;99.90;;;-141.85;100.00;63675.41;5013594;28;20285;-62
2021/03/02 00:52:39;;;;;;;44.20;21.27;;;3.30;99.90;;;-141.85;100.00;63675.41;5013864;28;20215;-61
2021/03/02 00:55:08;;;;;;;44.03;22.57;;;3.30;99.90;;;-141.85;100.00;63675.41;5013363;28;20275;-63
2021/03/02 00:57:35;;;;;;;43.03;22.40;;;3.30;99.90;;;-141.85;100.00;63675.41;5013916;28;20209;-62
2021/03/02 01:00:06;;;;;;;41.40;20.67;;;3.40;99.90;;;-141.85;100.00;63675.41;5013519;28;20240;-63
2021/03/02 01:02:34;;;;;;;47.63;22.57;;;3.40;99.90;;;-141.85;100.00;63675.41;5013390;28;20187;-62
2021/03/02 01:05:03;;;;;;;45.07;22.27;;;3.40;99.90;;;-141.85;100.00;63675.41;5013349;28;20231;-63
2021/03/02 01:07:30;;;;;;;46.23;22.10;;;3.50;99.90;;;-141.85;100.00;63675.41;5013291;28;20212;-62
2021/03/02 01:09:57;;;;;;;43.40;21.57;;;3.50;99.90;;;-141.85;100.00;63675.41;5013211;28;20658;-63
2021/03/02 01:12:26;;;;;;;43.87;21.77;;;3.40;99.90;;;-141.85;100.00;63675.41;5013753;28;20220;-62
2021/03/02 01:14:54;;;;;;;43.60;21.17;;;3.40;99.90;;;-141.85;100.00;63675.41;5013405;28;20199;-62
2021/03/02 01:17:21;;;;;;;49.20;23.00;;;3.40;99.90;;;-141.85;100.00;63675.41;5013181;28;20210;-62
2021/03/02 01:19:49;;;;;;;46.60;22.57;;;3.40;99.90;;;-141.85;100.00;63675.41;5013329;28;20206;-63
2021/03/02 01:22:16;;;;;;;49.70;23.07;;;3.30;99.90;;;-141.85;100.00;63675.41;5013315;28;20594;-62
2021/03/02 01:24:43;;;;;;;41.83;20.97;;;3.30;99.90;;;-141.85;100.00;63675.41;5013546;28;20225;-63
2021/03/02 01:27:11;;;;;;;47.63;21.87;;;3.30;99.90;;;-141.85;100.00;63675.41;5012909;28;20688;-63
2021/03/02 01:29:38;;;;;;;49.97;22.63;;;3.30;99.90;;;-141.85;100.00;63675.41;5013197;28;20266;-62
2021/03/02 01:32:06;;;;;;;47.17;22.10;;;3.30;99.90;;;-141.85;100.00;63675.41;5012629;28;20210;-62
2021/03/02 01:34:34;;;;;;;48.80;22.10;;;3.30;99.90;;;-141.85;100.00;63675.41;5013039;28;20238;-62
2021/03/02 01:37:02;;;;;;;46.93;22.20;;;3.40;99.90;;;-141.85;100.00;63675.41;5013259;28;20186;-57
2021/03/02 01:39:31;;;;;;;45.43;21.57;;;3.40;99.90;;;-141.85;100.00;63675.41;5012610;28;20617;-58
2021/03/02 01:42:00;;;;;;;46.90;22.47;;;3.40;99.90;;;-141.85;100.00;63675.41;5013022;28;20220;-57
2021/03/02 01:44:29;;;;;;;48.47;22.17;;;3.30;99.90;;;-141.85;100.00;63675.41;5013146;28;20255;-56
2021/03/02 01:46:57;;;;;;;44.93;20.37;;;3.20;99.90;;;-141.85;100.00;63675.41;5015248;28;20664;-58
2021/03/02 01:49:25;;;;;;;40.70;20.00;;;3.30;99.90;;;-141.85;100.00;63675.41;5016835;28;20226;-57
2021/03/02 01:51:52;;;;;;;40.37;19.63;;;3.20;99.90;;;-141.85;100.00;63675.41;5014237;28;20245;-56
2021/03/02 01:54:19;;;;;;;37.60;20.17;;;3.20;99.90;;;-141.85;100.00;63675.41;5012806;28;20217;-58
2021/03/02 01:56:47;;;;;;;36.50;19.13;;;3.20;99.90;;;-141.85;100.00;63675.41;5012533;28;20205;-56
2021/03/02 01:59:15;;;;;;;33.23;18.23;;;3.10;99.90;;;-141.85;100.00;63675.41;5012330;28;20205;-57
2021/03/02 02:01:42;;;;;;;37.53;18.87;;;3.30;99.90;;;-141.85;100.00;63675.41;5012489;28;20260;-56
2021/03/02 02:04:20;;;;;;;40.47;20.27;;;3.40;99.90;;;-141.85;100.00;63675.41;5012583;28;20607;-57
2021/03/02 02:06:55;;;;;;;38.57;19.73;;;3.50;99.90;;;-141.85;100.00;63675.41;5012951;28;20245;-57
2021/03/02 02:09:29;;;;;;;40.93;20.33;;;3.50;99.90;;;-141.85;100.00;63675.41;5012815;28;20260;-57
2021/03/02 02:12:06;;;;;;;37.87;19.90;;;3.50;99.90;;;-141.85;100.00;63675.41;5012399;28;20625;-57
2021/03/02 02:14:44;;;;;;;35.27;18.40;;;3.50;99.90;;;-141.85;100.00;63675.41;5012569;28;20197;-57
2021/03/02 02:17:22;;;;;;;35.47;17.60;;;3.50;99.90;;;-141.85;100.00;63675.41;5012559;28;20200;-57
2021/03/02 02:19:53;;;;;;;35.27;18.57;;;3.40;99.90;;;-141.85;100.00;63675.41;5012681;28;20219;-58
2021/03/02 02:23:03;;;;;;;34.60;18.40;;;3.30;99.90;;;-141.85;100.00;63675.41;5012436;28;20187;-57
2021/03/02 02:25:48;;;;;;;33.00;16.67;;;3.20;99.90;;;-141.85;100.00;63675.41;5012465;28;20207;-57
2021/03/02 02:28:19;;;;;;;34.00;17.27;;;3.10;99.90;;;-141.85;100.00;63675.41;5012991;28;20216;-57
2021/03/02 02:30:52;;;;;;;32.77;17.83;;;3.00;99.90;;;-141.85;100.00;63675.41;5011994;28;20630;-57
2021/03/02 02:33:21;;;;;;;36.03;19.03;;;3.00;99.90;;;-141.85;100.00;63675.41;5012701;28;20242;-57
2021/03/02 02:35:52;;;;;;;32.60;17.87;;;2.90;99.90;;;-141.85;100.00;63675.41;5012147;28;20234;-57
2021/03/02 02:38:22;;;;;;;33.17;17.30;;;3.00;99.90;;;-141.85;100.00;63675.41;5012425;28;20217;-57
2021/03/02 02:40:50;;;;;;;32.87;16.70;;;3.00;99.90;;;-141.85;100.00;63675.41;5012224;28;20262;-56
2021/03/02 02:43:19;;;;;;;36.73;19.03;;;3.00;99.90;;;-141.85;100.00;63675.41;5012461;28;20238;-57
2021/03/02 02:45:48;;;;;;;35.33;19.30;;;3.00;99.90;;;-141.85;100.00;63675.41;5012159;28;20219;-57
2021/03/02 02:48:18;;;;;;;39.13;19.03;;;3.00;99.90;;;-141.85;100.00;63675.41;5012507;28;20289;-57
2021/03/02 02:50:49;;;;;;;37.03;18.23;;;3.00;99.90;;;-141.85;100.00;63675.41;5013566;28;20205;-58
2021/03/02 02:53:17;;;;;;;36.37;18.53;;;2.90;99.90;;;-141.85;100.00;63675.41;5016118;28;20191;-57
2021/03/02 02:55:53;;;;;;;37.97;19.13;;;3.00;99.90;;;-141.85;100.00;63675.41;5015903;28;20227;-63
2021/03/02 02:58:32;;;;;;;35.53;17.43;;;3.00;99.90;;;-141.85;100.00;63675.41;5016045;28;20188;-63
2021/03/02 03:01:04;;;;;;;38.73;18.07;;;3.20;99.90;;;-141.85;100.00;63675.41;5015301;28;20194;-62
2021/03/02 03:03:37;;;;;;;28.10;15.47;;;3.20;99.90;;;-141.85;100.00;63675.41;5016270;28;20191;-63
2021/03/02 03:06:11;;;;;;;33.00;16.70;;;3.10;99.90;;;-141.85;100.00;63675.41;5015745;28;20207;-63
2021/03/02 03:08:42;;;;;;;32.27;17.70;;;3.10;99.90;;;-141.85;100.00;63675.41;5015823;28;20275;-62
2021/03/02 03:11:11;;;;;;;32.70;17.00;;;3.10;99.90;;;-141.85;100.00;63675.41;5016077;28;20191;-63
2021/03/02 03:13:47;;;;;;;33.37;16.97;;;3.20;99.90;;;-141.85;100.00;63675.41;5015660;28;20298;-62
2021/03/02 03:16:15;;;;;;;34.73;17.17;;;3.20;99.90;;;-141.85;100.00;63675.41;5015151;28;20701;-63
2021/03/02 03:18:47;;;;;;;34.47;17.07;;;3.20;99.90;;;-141.85;100.00;63675.41;5015623;28;20222;-62
2021/03/02 03:21:14;;;;;;;35.40;17.33;;;3.20;99.90;;;-141.85;100.00;63675.41;5015709;28;20199;-62
2021/03/02 03:23:43;;;;;;;33.33;16.90;;;3.20;99.90;;;-141.85;100.00;63675.41;5015463;28;20243;-63
2021/03/02 03:26:14;;;;;;;30.83;16.80;;;3.20;99.90;;;-141.85;100.00;63675.41;5015290;28;20223;-62
2021/03/02 03:28:46;;;;;;;34.93;18.27;;;3.00;99.90;;;-141.85;100.00;63675.41;5015574;28;20556;-62
2021/03/02 03:31:16;;;;;;;49.03;18.80;;;3.00;99.90;;;-141.85;100.00;63675.41;5015148;28;20285;-62
2021/03/02 03:33:45;;;;;;;35.13;17.80;;;3.00;99.90;;;-141.85;100.00;63675.41;5015358;28;20215;-61
2021/03/02 03:36:13;;;;;;;37.73;18.37;;;3.00;99.90;;;-141.85;100.00;63675.41;5015164;28;20232;-62
2021/03/02 03:38:40;;;;;;;32.90;17.10;;;3.00;99.90;;;-141.85;100.00;63675.41;5014960;28;20291;-62
2021/03/02 03:41:08;;;;;;;33.80;17.70;;;3.10;99.90;;;-141.85;100.00;63675.41;5015135;28;20291;-62
2021/03/02 03:43:35;;;;;;;30.77;17.53;;;3.00;99.90;;;-141.85;100.00;63675.41;5015150;28;20199;-62
2021/03/02 03:46:03;;;;;;;28.87;16.27;;;3.10;99.90;;;-141.85;100.00;63675.41;5014359;28;20228;-62
2021/03/02 03:48:30;;;;;;;27.93;15.80;;;3.00;99.90;;;-141.85;100.00;63675.41;5015069;28;20264;-62
2021/03/02 03:50:58;;;;;;;25.73;15.00;;;3.00;99.90;;;-141.85;100.00;63675.41;5015047;28;20209;-63
2021/03/02 03:53:30;;;;;;;26.83;16.30;;;2.90;99.90;;;-141.85;100.00;63675.41;5015138;28;20203;-62
2021/03/02 03:56:00;;;;;;;25.80;15.47;;;2.90;99.90;;;-141.85;100.00;63675.41;5014421;28;20671;-61
2021/03/02 03:58:30;;;;;;;27.93;16.07;;;2.90;99.90;;;-141.85;100.00;63675.41;5014890;28;20639;-62
2021/03/02 04:01:02;;;;;;;28.27;15.97;;;2.90;99.90;;;-141.85;100.00;63675.41;5014223;28;20824;-62
2021/03/02 04:03:33;;;;;;;27.20;15.97;;;2.80;99.90;;;-141.85;100.00;63675.41;5014417;28;20293;-63
2021/03/02 04:06:03;;;;;;;28.93;16.60;;;2.80;99.90;;;-141.85;100.00;63675.41;5014630;28;20759;-63
2021/03/02 04:08:31;;;;;;;26.67;15.93;;;2.90;99.90;;;-141.85;100.00;63675.41;5014757;28;20580;-62
2021/03/02 04:11:01;;;;;;;24.73;15.37;;;2.80;99.90;;;-141.85;100.00;63675.41;5014543;28;20289;-62
2021/03/02 04:13:28;;;;;;;26.37;15.43;;;2.90;99.90;;;-141.85;100.00;63675.41;5014038;28;20297;-62
2021/03/02 04:15:59;;;;;;;25.63;15.03;;;2.90;99.90;;;-141.85;100.00;63675.41;5014332;28;20563;-62
2021/03/02 04:18:27;;;;;;;22.87;14.00;;;2.90;99.90;;;-141.85;100.00;63675.41;5014590;28;20196;-62
2021/03/02 04:20:56;;;;;;;26.20;14.97;;;2.90;99.90;;;-141.85;100.00;63675.41;5014081;28;20668;-62
2021/03/02 04:23:23;;;;;;;24.47;14.10;;;3.00;99.90;;;-141.85;100.00;63675.41;5014189;28;20291;-63
2021/03/02 04:25:50;;;;;;;27.50;15.33;;;2.90;99.90;;;-141.85;100.00;63675.41;5014316;28;20221;-62
2021/03/02 04:28:17;;;;;;;25.10;15.00;;;2.90;99.90;;;-141.85;100.00;63675.41;5014215;28;20235;-63
2021/03/02 04:30:44;;;;;;;26.07;16.07;;;3.00;99.90;;;-141.85;100.00;63675.41;5014075;28;20271;-62
2021/03/02 04:33:12;;;;;;;27.57;15.93;;;3.00;99.90;;;-141.85;100.00;63675.41;5014535;28;20216;-61
2021/03/02 04:35:40;;;;;;;24.93;15.10;;;3.00;99.90;;;-141.85;100.00;63675.41;5014014;28;20678;-61
2021/03/02 04:38:09;;;;;;;28.93;16.07;;;3.00;99.90;;;-141.85;100.00;63675.41;5014433;28;20205;-62
2021/03/02 04:40:36;;;;;;;26.77;16.13;;;3.00;99.90;;;-141.85;100.00;63675.41;5014123;28;20199;-61
2021/03/02 04:43:03;;;;;;;27.47;15.30;;;2.90;99.90;;;-141.85;100.00;63675.41;5014006;28;20264;-63
2021/03/02 04:45:48;;;;;;;27.03;15.97;;;2.80;99.90;;;-141.85;100.00;63675.41;5013593;28;20713;-62
2021/03/02 04:48:15;;;;;;;28.37;16.17;;;2.80;99.90;;;-141.85;100.00;63675.41;5014094;28;20230;-62
2021/03/02 04:50:43;;;;;;;25.17;15.60;;;2.80;99.90;;;-141.85;100.00;63675.41;5013641;28;20409;-62
2021/03/02 04:53:13;;;;;;;25.77;15.67;;;2.70;99.90;;;-141.85;100.00;63675.41;5006639;28;20205;-62
2021/03/02 04:55:40;;;;;;;27.83;15.83;;;2.80;99.90;;;-141.85;100.00;63675.41;5005074;28;20208;-62
2021/03/02 04:58:07;;;;;;;26.30;15.83;;;2.80;99.90;;;-141.85;100.00;63675.41;5011900;28;20302;-63
2021/03/02 05:00:34;;;;;;;27.13;15.33;;;2.80;99.90;;;-141.85;100.00;63675.41;5007508;28;20213;-62
2021/03/02 05:03:01;;;;;;;25.70;15.03;;;2.80;99.90;;;-141.85;100.00;63675.41;4993891;28;20902;-62
2021/03/02 05:05:28;;;;;;;27.50;15.20;;;2.80;99.90;;;-141.85;100.00;63675.41;4993639;28;20707;-62
2021/03/02 05:07:56;;;;;;;25.60;14.73;;;2.90;99.90;;;-141.85;100.00;63675.41;4993890;28;20250;-62
2021/03/02 05:10:23;;;;;;;31.93;16.37;;;2.90;99.90;;;-141.85;100.00;63675.41;4993671;28;20566;-62
2021/03/02 05:12:55;;;;;;;25.17;14.33;;;2.80;99.90;;;-141.85;100.00;63675.41;4999390;28;20669;-63
2021/03/02 05:15:22;;;;;;;25.57;15.40;;;2.70;99.90;;;-141.85;100.00;63675.41;5004221;28;20201;-63
2021/03/02 05:17:49;;;;;;;31.40;17.73;;;2.70;99.90;;;-141.85;100.00;63675.41;5005425;28;20293;-61
2021/03/02 05:20:17;;;;;;;31.43;16.30;;;2.60;99.90;;;-141.85;100.00;63675.41;5008056;28;20209;-62
2021/03/02 05:22:45;;;;;;;26.60;14.13;;;2.60;99.90;;;-141.85;100.00;63675.41;5008975;28;20294;-62
2021/03/02 05:25:13;;;;;;;32.77;16.20;;;2.50;99.90;;;-141.85;100.00;63675.41;5011028;28;20255;-62
2021/03/02 05:27:41;;;;;;;38.00;15.07;;;2.50;99.90;;;-141.85;100.00;63675.41;5009984;28;20219;-62
2021/03/02 05:30:11;;;;;;;29.57;16.10;;;2.40;99.90;;;-141.85;100.00;63675.41;5010332;28;20289;-62
2021/03/02 05:32:38;;;;;;;26.23;14.50;;;2.40;99.90;;;-141.85;100.00;63675.41;5011051;28;20209;-63
2021/03/02 05:35:08;;;;;;;25.30;14.67;;;2.50;99.90;;;-141.85;100.00;63675.41;5010726;28;20671;-61
2021/03/02 05:37:36;;;;;;;26.07;15.07;;;2.60;99.90;;;-141.85;100.00;63675.41;5001283;28;20199;-61
2021/03/02 05:40:06;;;;;;;29.07;16.60;;;2.60;99.90;;;-141.85;100.00;63675.41;5001783;28;20637;-63
2021/03/02 05:42:35;;;;;;;26.83;15.23;;;2.50;99.90;;;-141.85;100.00;63675.41;4993753;28;20294;-62
2021/03/02 05:45:05;;;;;;;27.17;15.13;;;2.50;99.90;;;-141.85;100.00;63675.41;5007662;28;20619;-62
2021/03/02 05:47:34;;;;;;;27.03;15.03;;;2.60;99.90;;;-141.85;100.00;63675.41;5008875;28;20306;-62
2021/03/02 05:50:04;;;;;;;23.63;14.57;;;2.60;99.90;;;-141.85;100.00;63675.41;5001206;28;20211;-63
2021/03/02 05:52:31;;;;;;;28.73;15.37;;;2.70;99.90;;;-141.85;100.00;63675.41;5001051;28;20244;-63
2021/03/02 05:55:00;;;;;;;25.07;14.67;;;2.70;99.90;;;-141.85;100.00;63675.41;4995758;28;20293;-61
2021/03/02 05:57:29;;;;;;;23.40;13.67;;;2.70;99.90;;;-141.85;100.00;63675.41;5012057;28;20337;-63
2021/03/02 05:59:56;;;;;;;27.27;15.13;;;2.60;99.90;;;-141.85;100.00;63675.41;5012891;28;20289;-63
2021/03/02 06:02:24;;;;;;;28.43;15.20;;;2.60;99.90;;;-141.85;100.00;63675.41;5012751;28;20240;-62
2021/03/02 06:04:51;;;;;;;24.30;14.37;;;2.70;99.90;;;-141.85;100.00;63675.41;5012581;28;20712;-62
2021/03/02 06:07:18;;;;;;;23.63;13.97;;;2.80;99.90;;;-141.85;100.00;63675.41;5012600;28;20617;-63
2021/03/02 06:09:48;;;;;;;24.67;14.27;;;2.90;99.90;;;-141.85;100.00;63675.41;5012779;28;20267;-63
2021/03/02 06:12:16;;;;;;;29.07;12.90;;;2.80;99.90;;;-141.85;100.00;63675.41;5012891;28;20245;-62
2021/03/02 06:14:44;;;;;;;28.27;14.13;;;2.70;99.90;;;-141.85;100.00;63675.41;5012679;28;20249;-62
2021/03/02 06:17:12;;;;;;;18.93;12.57;;;2.70;99.90;;;-141.85;100.00;63675.41;5012365;28;20202;-63
2021/03/02 06:19:43;;;;;;;24.70;13.33;;;2.80;99.90;;;-141.85;100.00;63675.41;5012641;28;20619;-62
2021/03/02 06:22:34;;;;;;;20.03;12.47;;;2.80;99.90;;;-141.85;100.00;63675.41;5012806;28;20184;-63
2021/03/02 06:25:04;;;;;;;21.20;12.33;;;2.80;99.90;;;-141.85;100.00;63675.41;5013119;28;20571;-62
2021/03/02 06:27:32;;;;;;;18.40;12.17;;;2.80;99.90;;;-141.85;100.00;63675.41;5016583;28;20301;-62
2021/03/02 06:30:14;;;;;;;21.90;13.33;;;2.70;99.90;;;-141.85;100.00;63675.41;5015439;28;20273;-63
2021/03/02 06:32:45;;;;;;;23.20;13.67;;;2.60;99.90;;;-141.85;100.00;63675.41;4997064;28;20249;-62
2021/03/02 06:35:30;;;;;;;22.77;13.33;;;2.60;99.90;;;-141.85;100.00;63675.41;5008537;28;20238;-63
2021/03/02 06:37:57;;;;;;;19.27;12.40;;;2.80;99.90;;;-141.85;100.00;63675.41;5008151;28;20649;-63
2021/03/02 06:40:42;;;;;;;18.67;11.63;;;2.90;99.90;;;-141.85;100.00;63675.41;5015917;28;20298;-62
2021/03/02 06:43:34;;;;;;;18.87;12.40;;;2.90;99.90;;;-141.85;100.00;63675.41;5015660;28;20672;-62
2021/03/02 06:46:04;;;;;;;18.83;11.73;;;3.00;99.90;;;-141.85;100.00;63675.41;5015946;28;20222;-61
2021/03/02 06:48:33;;;;;;;17.10;11.43;;;3.10;99.90;;;-141.85;100.00;63675.41;5010079;28;20650;-64
2021/03/02 06:51:01;;;;;;;18.77;12.20;;;3.00;99.90;;;-141.85;100.00;63675.41;5013241;28;20210;-65
2021/03/02 06:53:28;;;;;;;26.10;12.73;;;3.00;99.90;;;-141.85;100.00;63675.41;5012745;28;20679;-61
2021/03/02 06:56:12;;;;;;;19.67;12.83;;;3.00;99.90;;;-141.85;100.00;63675.41;5012254;28;20199;-62
2021/03/02 06:58:39;;;;;;;21.17;12.70;;;3.00;99.90;;;-141.85;100.00;63675.41;5005251;28;20698;-64
2021/03/02 07:01:06;;;;;;;19.23;13.23;;;3.10;99.90;;;-141.85;100.00;63675.41;5012894;28;20621;-64
2021/03/02 07:03:35;;;;;;;19.47;12.93;;;3.20;99.90;;;-141.85;100.00;63675.41;5012676;28;20268;-70
2021/03/02 07:06:06;;;;;;;20.10;13.33;;;3.10;99.90;;;-141.85;100.00;63675.41;5012671;28;20282;-65
2021/03/02 07:08:36;;;;;;;19.90;13.10;;;3.20;99.90;;;-141.85;100.00;63675.41;5012826;28;20606;-65
2021/03/02 07:11:04;;;;;;;19.43;12.53;;;3.30;99.90;;;-141.85;100.00;63675.41;5012582;28;20294;-65
2021/03/02 07:13:36;;;;;;;18.90;12.33;;;3.30;99.90;;;-141.85;100.00;63675.41;5012582;28;20226;-63
2021/03/02 07:16:07;;;;;;;19.37;12.10;;;3.20;99.90;;;-141.85;100.00;63675.41;5012605;28;20181;-62
2021/03/02 07:18:35;;;;;;;17.97;11.40;;;3.10;99.90;;;-141.85;100.00;63675.41;5012446;28;20241;-68
2021/03/02 07:21:04;;;;;;;19.07;12.67;;;3.20;99.90;;;-141.85;100.00;63675.41;5012525;28;20216;-63
2021/03/02 07:23:35;;;;;;;21.93;12.17;;;3.20;99.90;;;-141.85;100.00;63675.41;5012394;28;20660;-64
2021/03/02 07:26:04;;;;;;;19.00;12.33;;;3.40;99.90;;;-141.85;100.00;63675.41;5012265;28;20234;-67
2021/03/02 07:28:36;;;;;;;20.57;12.07;;;3.50;99.90;;;-141.85;100.00;63675.41;5012449;28;20413;-61
2021/03/02 07:31:03;;;;;;;26.63;13.33;;;3.40;99.90;;;-141.85;100.00;63675.41;5011925;28;20195;-64
2021/03/02 07:33:32;;;;;;;21.67;12.83;;;3.50;99.90;;;-141.85;100.00;63675.41;5012081;28;20216;-62
2021/03/02 07:36:00;;;;;;;20.67;13.37;;;3.50;99.90;;;-141.85;100.00;63675.41;5011483;28;20291;-64
2021/03/02 07:38:29;;;;;;;17.20;11.40;;;3.60;99.90;;;-141.85;100.00;63675.41;5010875;28;20209;-66
2021/03/02 07:40:57;;;;;;;23.20;12.70;;;3.60;99.90;;;-141.85;100.00;63675.41;5011892;28;20209;-61
2021/03/02 07:43:30;;;;;;;22.10;13.23;;;3.70;99.90;;;-141.85;100.00;63675.41;5011806;28;20208;-62
2021/03/02 07:45:59;;;;;;;22.57;12.70;;;3.70;99.90;;;-141.85;100.00;63675.41;5011501;28;20293;-62
2021/03/02 07:48:32;;;;;;;20.43;13.10;;;3.70;99.90;;;-141.85;100.00;63675.41;5011838;28;20264;-63
2021/03/02 07:51:19;;;;;;;19.13;12.10;;;3.70;99.90;;;-141.85;100.00;63675.41;5011680;28;20191;-66
2021/03/02 07:53:49;;;;;;;22.03;12.23;;;3.80;99.90;;;-141.85;100.00;63675.41;5011643;28;20195;-63
2021/03/02 07:56:25;;;;;;;19.50;12.70;;;3.90;99.90;;;-141.85;100.00;63675.41;5011468;28;20582;-65
2021/03/02 07:59:19;;;;;;;19.83;12.43;;;4.00;99.90;;;-141.85;100.00;63675.41;5011633;28;20267;-61
2021/03/02 08:02:15;;;;;;;20.23;12.17;;;4.10;99.90;;;-141.85;100.00;63675.41;5011450;28;20605;-52
2021/03/02 08:04:46;;;;;;;19.47;12.47;;;4.10;99.90;;;-141.85;100.00;63675.41;5011525;28;20218;-59
2021/03/02 08:07:27;;;;;;;19.30;12.33;;;4.20;99.90;;;-141.85;100.00;63675.41;5011529;28;20290;-57
2021/03/02 08:09:57;;;;;;;20.53;12.73;;;4.30;99.90;;;-141.85;100.00;63675.41;5011020;28;20288;-60
2021/03/02 08:12:35;;;;;;;20.47;12.87;;;4.50;99.90;;;-141.85;100.00;63675.41;5011644;28;20237;-61
2021/03/02 08:15:39;;;;;;;18.97;12.63;;;4.60;99.90;;;-141.85;100.00;63675.41;5011395;28;20194;-52
2021/03/02 08:18:36;;;;;;;17.47;11.97;;;4.50;99.90;;;-141.85;100.00;63675.41;5011444;28;20197;-53
2021/03/02 08:21:10;;;;;;;18.23;11.80;;;4.30;99.90;;;-141.85;100.00;63675.41;5010979;28;20209;-56
2021/03/02 08:23:56;;;;;;;19.80;12.80;;;4.20;99.90;;;-141.85;100.00;63675.41;5011355;28;20278;-60
2021/03/02 08:26:29;;;;;;;20.07;12.80;;;4.30;99.90;;;-141.85;100.00;63675.41;5010953;28;20214;-59
2021/03/02 08:29:09;;;;;;;20.40;12.80;;;4.40;99.90;;;-141.85;100.00;63675.41;5011147;28;20215;-58
2021/03/02 08:31:38;;;;;;;22.23;13.63;;;4.40;99.90;;;-141.85;100.00;63675.41;5011132;28;20252;-59
2021/03/02 08:34:09;;;;;;;18.77;12.43;;;4.60;99.90;;;-141.85;100.00;63675.41;5010970;28;20248;-57
2021/03/02 08:36:38;;;;;;;18.33;12.63;;;4.70;99.90;;;-141.85;100.00;63675.41;5010786;28;20189;-57
2021/03/02 08:39:14;;;;;;;18.33;12.23;;;5.00;99.90;;;-141.85;100.00;63675.41;5010971;28;20238;-54
2021/03/02 08:41:46;;;;;;;18.13;12.00;;;5.30;99.90;;;-141.85;100.00;63675.41;5010654;28;20281;-53
2021/03/02 08:44:19;;;;;;;18.63;12.37;;;5.30;99.90;;;-141.85;100.00;63675.41;5011122;28;20282;-53
2021/03/02 08:46:50;;;;;;;18.07;11.97;;;5.30;99.90;;;-141.85;100.00;63675.41;5010806;28;20317;-52
2021/03/02 08:49:18;;;;;;;19.23;12.13;;;5.20;99.90;;;-141.85;100.00;63675.41;5010529;28;20246;-53
2021/03/02 08:51:45;;;;;;;17.23;11.90;;;5.30;99.90;;;-141.85;100.00;63675.41;5010943;28;20207;-52
2021/03/02 08:54:13;;;;;;;20.83;13.13;;;5.30;99.90;;;-141.85;100.00;63675.41;5010794;28;20292;-60
2021/03/02 08:56:40;;;;;;;19.57;12.53;;;5.30;99.90;;;-141.85;100.00;63675.41;5010490;28;20203;-55
2021/03/02 08:59:11;;;;;;;17.90;11.90;;;5.20;99.90;;;-141.85;100.00;63675.41;5010514;28;20257;-54
2021/03/02 09:01:39;;;;;;;18.67;12.50;;;5.30;99.90;;;-141.85;100.00;63675.41;5010496;28;20230;-58
2021/03/02 09:04:13;;;;;;;19.27;13.23;;;5.40;99.90;;;-141.85;100.00;63675.41;5010855;28;20201;-62
2021/03/02 09:06:42;;;;;;;17.77;12.13;;;5.20;99.90;;;-141.85;100.00;63675.41;5010478;28;20265;-64
2021/03/02 09:09:11;;;;;;;20.37;12.83;;;5.30;99.90;;;-141.85;100.00;63675.41;5010505;28;20272;-61
2021/03/02 09:11:41;;;;;;;15.33;10.70;;;5.40;99.90;;;-141.85;100.00;63675.41;5010528;28;20261;-65
2021/03/02 09:14:14;;;;;;;17.40;11.97;;;5.50;99.90;;;-141.85;100.00;63675.41;5010162;28;20620;-66
2021/03/02 09:16:45;;;;;;;19.23;12.97;;;5.50;99.90;;;-141.85;100.00;63675.41;5009997;28;20696;-65
2021/03/02 09:19:22;;;;;;;20.43;12.80;;;5.60;99.90;;;-141.85;100.00;63675.41;5010426;28;20232;-66
2021/03/02 09:21:57;;;;;;;17.80;11.67;;;5.60;99.90;;;-141.85;100.00;63675.41;5010234;28;20228;-63
2021/03/02 09:24:42;;;;;;;17.13;11.90;;;5.60;99.90;;;-141.85;100.00;63675.41;5009697;28;20635;-63
2021/03/02 09:27:12;;;;;;;16.43;11.90;;;5.60;99.90;;;-141.85;100.00;63675.41;5009893;28;20298;-66
2021/03/02 09:29:42;;;;;;;16.53;12.40;;;5.70;99.90;;;-141.85;100.00;63675.41;5010033;28;20207;-63
2021/03/02 09:32:12;;;;;;;19.03;12.20;;;5.90;99.90;;;-141.85;100.00;63675.41;5008521;28;20241;-63
2021/03/02 09:34:42;;;;;;;17.00;11.30;;;6.10;99.90;;;-141.85;100.00;63675.41;5007905;28;20296;-65
2021/03/02 09:37:12;;;;;;;19.77;12.23;;;5.80;99.90;;;-141.85;100.00;63675.41;4990005;28;20651;-61
2021/03/02 09:39:43;;;;;;;16.40;11.43;;;5.80;99.90;;;-141.85;100.00;63675.41;4990006;28;20238;-66
2021/03/02 09:42:19;;;;;;;15.67;11.03;;;5.90;99.90;;;-141.85;100.00;63675.41;5004804;28;20289;-69
2021/03/02 09:44:48;;;;;;;15.33;10.70;;;5.90;99.90;;;-141.85;100.00;63675.41;5009842;28;20211;-76
2021/03/02 09:47:25;;;;;;;17.70;12.07;;;5.90;99.90;;;-141.85;100.00;63675.41;5011535;28;20222;-63
2021/03/02 09:49:59;;;;;;;21.47;14.43;;;5.90;99.90;;;-141.85;100.00;63675.41;5009888;28;20186;-62
2021/03/02 09:52:35;;;;;;;21.77;12.80;;;6.20;99.90;;;-141.85;100.00;63675.41;5011483;28;20218;-63
2021/03/02 09:55:24;;;;;;;18.77;11.57;;;6.30;99.90;;;-141.85;100.00;63675.41;5010471;28;20282;-63
2021/03/02 09:58:08;;;;;;;16.43;11.27;;;6.50;99.90;;;-141.85;100.00;63675.41;4990638;28;20669;-63
2021/03/02 10:00:41;;;;;;;17.40;11.43;;;6.70;99.90;;;-141.85;100.00;63675.41;4997275;28;20230;-64
2021/03/02 10:03:12;;;;;;;16.77;11.50;;;6.70;99.90;;;-141.85;100.00;63675.41;5009955;28;20187;-64
2021/03/02 10:05:43;;;;;;;15.37;11.30;;;6.80;99.90;;;-141.85;100.00;63675.41;5009419;28;20225;-64
2021/03/02 10:08:27;;;;;;;15.80;11.30;;;6.50;99.90;;;-141.85;100.00;63675.41;5009409;28;20270;-66
2021/03/02 10:10:57;;;;;;;16.47;11.97;;;6.40;99.90;;;-141.85;100.00;63675.41;5008896;28;20611;-63